sensor_id;sensor_type;location;lat;lon;timestamp;P1;durP1;ratioP1;P2;durP2;ratioP2
75820;SDS011;64454;51.984;9.838;2024-02-16T00:02:11;2.40;;;1.70;;
75820;SDS011;64454;51.984;9.838;2024-02-16T00:04:38;2.60;;;1.83;;
75820;SDS011;64454;51.984;9.838;2024-02-16T00:07:04;2.60;;;1.80;;
75820;SDS011;64454;51.984;9.838;2024-02-16T00:09:30;2.90;;;1.83;;
75820;SDS011;64454;51.984;9.838;2024-02-16T00:11:58;1.80;;;1.48;;
75820;SDS011;64454;51.984;9.838;2024-02-16T00:14:24;2.70;;;2.00;;
75820;SDS011;64454;51.984;9.838;2024-02-16T00:16:50;4.57;;;3.10;;
75820;SDS011;64454;51.984;9.838;2024-02-16T00:19:16;2.55;;;1.70;;
75820;SDS011;64454;51.984;9.838;2024-02-16T00:21:43;2.67;;;1.50;;
75820;SDS011;64454;51.984;9.838;2024-02-16T00:24:09;3.38;;;1.92;;
75820;SDS011;64454;51.984;9.838;2024-02-16T00:26:36;2.60;;;2.07;;
75820;SDS011;64454;51.984;9.838;2024-02-16T00:29:04;2.80;;;1.80;;
75820;SDS011;64454;51.984;9.838;2024-02-16T00:31:30;3.05;;;1.65;;
75820;SDS011;64454;51.984;9.838;2024-02-16T00:33:56;2.67;;;1.40;;
75820;SDS011;64454;51.984;9.838;2024-02-16T00:36:23;4.97;;;1.70;;
75820;SDS011;64454;51.984;9.838;2024-02-16T00:38:49;4.30;;;1.73;;
75820;SDS011;64454;51.984;9.838;2024-02-16T00:41:19;2.90;;;1.70;;
75820;SDS011;64454;51.984;9.838;2024-02-16T00:43:45;3.25;;;1.77;;
75820;SDS011;64454;51.984;9.838;2024-02-16T00:46:11;4.30;;;2.00;;
75820;SDS011;64454;51.984;9.838;2024-02-16T00:48:37;2.80;;;1.80;;
75820;SDS011;64454;51.984;9.838;2024-02-16T00:51:03;3.00;;;1.70;;
75820;SDS011;64454;51.984;9.838;2024-02-16T00:53:30;2.35;;;1.80;;
75820;SDS011;64454;51.984;9.838;2024-02-16T00:55:56;2.72;;;2.30;;
75820;SDS011;64454;51.984;9.838;2024-02-16T00:58:22;2.65;;;1.60;;
75820;SDS011;64454;51.984;9.838;2024-02-16T01:00:49;2.38;;;1.50;;
75820;SDS011;64454;51.984;9.838;2024-02-16T01:03:15;2.40;;;1.70;;
75820;SDS011;64454;51.984;9.838;2024-02-16T01:05:41;4.20;;;1.97;;
75820;SDS011;64454;51.984;9.838;2024-02-16T01:08:07;1.90;;;1.70;;
75820;SDS011;64454;51.984;9.838;2024-02-16T01:10:33;3.13;;;1.70;;
75820;SDS011;64454;51.984;9.838;2024-02-16T01:13:00;3.10;;;1.65;;
75820;SDS011;64454;51.984;9.838;2024-02-16T01:15:26;4.32;;;1.90;;
75820;SDS011;64454;51.984;9.838;2024-02-16T01:17:52;2.42;;;1.77;;
75820;SDS011;64454;51.984;9.838;2024-02-16T01:20:18;2.10;;;1.65;;
75820;SDS011;64454;51.984;9.838;2024-02-16T01:22:45;2.20;;;1.50;;
75820;SDS011;64454;51.984;9.838;2024-02-16T01:25:11;7.80;;;2.10;;
75820;SDS011;64454;51.984;9.838;2024-02-16T01:27:37;3.38;;;1.65;;
75820;SDS011;64454;51.984;9.838;2024-02-16T01:30:07;4.10;;;2.00;;
75820;SDS011;64454;51.984;9.838;2024-02-16T01:32:34;4.90;;;2.05;;
75820;SDS011;64454;51.984;9.838;2024-02-16T01:35:00;3.60;;;1.90;;
75820;SDS011;64454;51.984;9.838;2024-02-16T01:37:26;2.67;;;1.65;;
75820;SDS011;64454;51.984;9.838;2024-02-16T01:39:52;5.77;;;2.00;;
75820;SDS011;64454;51.984;9.838;2024-02-16T01:42:18;2.60;;;1.55;;
75820;SDS011;64454;51.984;9.838;2024-02-16T01:44:44;2.55;;;1.55;;
75820;SDS011;64454;51.984;9.838;2024-02-16T01:47:11;3.33;;;1.70;;
75820;SDS011;64454;51.984;9.838;2024-02-16T01:49:38;3.00;;;1.70;;
75820;SDS011;64454;51.984;9.838;2024-02-16T01:52:04;3.80;;;2.15;;
75820;SDS011;64454;51.984;9.838;2024-02-16T01:54:31;3.40;;;2.00;;
75820;SDS011;64454;51.984;9.838;2024-02-16T01:56:58;4.20;;;1.80;;
75820;SDS011;64454;51.984;9.838;2024-02-16T01:59:26;4.60;;;1.55;;
75820;SDS011;64454;51.984;9.838;2024-02-16T02:01:53;3.40;;;1.90;;
75820;SDS011;64454;51.984;9.838;2024-02-16T02:04:19;4.00;;;1.80;;
75820;SDS011;64454;51.984;9.838;2024-02-16T02:06:46;2.50;;;1.60;;
75820;SDS011;64454;51.984;9.838;2024-02-16T02:09:12;2.28;;;1.70;;
75820;SDS011;64454;51.984;9.838;2024-02-16T02:11:38;2.93;;;1.60;;
75820;SDS011;64454;51.984;9.838;2024-02-16T02:14:04;5.60;;;1.92;;
75820;SDS011;64454;51.984;9.838;2024-02-16T02:16:30;2.58;;;1.42;;
75820;SDS011;64454;51.984;9.838;2024-02-16T02:18:56;4.10;;;1.33;;
75820;SDS011;64454;51.984;9.838;2024-02-16T02:21:23;2.67;;;1.55;;
75820;SDS011;64454;51.984;9.838;2024-02-16T02:23:49;3.33;;;2.13;;
75820;SDS011;64454;51.984;9.838;2024-02-16T02:26:16;3.20;;;1.40;;
75820;SDS011;64454;51.984;9.838;2024-02-16T02:28:42;3.33;;;1.67;;
75820;SDS011;64454;51.984;9.838;2024-02-16T02:31:08;3.80;;;1.70;;
75820;SDS011;64454;51.984;9.838;2024-02-16T02:33:34;3.33;;;1.83;;
75820;SDS011;64454;51.984;9.838;2024-02-16T02:36:00;3.13;;;1.70;;
75820;SDS011;64454;51.984;9.838;2024-02-16T02:38:28;3.05;;;1.60;;
75820;SDS011;64454;51.984;9.838;2024-02-16T02:40:56;3.80;;;2.03;;
75820;SDS011;64454;51.984;9.838;2024-02-16T02:43:22;2.95;;;1.50;;
75820;SDS011;64454;51.984;9.838;2024-02-16T02:45:48;2.50;;;1.48;;
75820;SDS011;64454;51.984;9.838;2024-02-16T02:48:14;2.50;;;1.40;;
75820;SDS011;64454;51.984;9.838;2024-02-16T02:50:40;3.35;;;1.65;;
75820;SDS011;64454;51.984;9.838;2024-02-16T02:53:06;4.05;;;2.00;;
75820;SDS011;64454;51.984;9.838;2024-02-16T02:55:32;3.10;;;1.70;;
75820;SDS011;64454;51.984;9.838;2024-02-16T02:57:59;3.40;;;1.70;;
75820;SDS011;64454;51.984;9.838;2024-02-16T03:00:25;3.88;;;2.10;;
75820;SDS011;64454;51.984;9.838;2024-02-16T03:02:51;4.20;;;1.90;;
75820;SDS011;64454;51.984;9.838;2024-02-16T03:05:17;2.60;;;1.50;;
75820;SDS011;64454;51.984;9.838;2024-02-16T03:07:45;4.53;;;1.90;;
75820;SDS011;64454;51.984;9.838;2024-02-16T03:10:11;2.88;;;1.60;;
75820;SDS011;64454;51.984;9.838;2024-02-16T03:12:39;1.98;;;1.45;;
75820;SDS011;64454;51.984;9.838;2024-02-16T03:15:06;3.05;;;1.33;;
75820;SDS011;64454;51.984;9.838;2024-02-16T03:17:33;1.85;;;1.52;;
75820;SDS011;64454;51.984;9.838;2024-02-16T03:19:59;3.50;;;1.60;;
75820;SDS011;64454;51.984;9.838;2024-02-16T03:22:26;2.40;;;1.70;;
75820;SDS011;64454;51.984;9.838;2024-02-16T03:24:52;3.10;;;1.60;;
75820;SDS011;64454;51.984;9.838;2024-02-16T03:27:18;4.72;;;2.15;;
75820;SDS011;64454;51.984;9.838;2024-02-16T03:29:44;3.42;;;2.00;;
75820;SDS011;64454;51.984;9.838;2024-02-16T03:32:10;2.92;;;1.70;;
75820;SDS011;64454;51.984;9.838;2024-02-16T03:34:36;3.30;;;1.70;;
75820;SDS011;64454;51.984;9.838;2024-02-16T03:37:03;2.45;;;1.50;;
75820;SDS011;64454;51.984;9.838;2024-02-16T03:39:29;2.17;;;1.50;;
75820;SDS011;64454;51.984;9.838;2024-02-16T03:41:55;2.90;;;1.75;;
75820;SDS011;64454;51.984;9.838;2024-02-16T03:44:21;4.05;;;1.80;;
75820;SDS011;64454;51.984;9.838;2024-02-16T03:46:47;2.50;;;1.30;;
75820;SDS011;64454;51.984;9.838;2024-02-16T03:49:14;2.88;;;1.50;;
75820;SDS011;64454;51.984;9.838;2024-02-16T03:51:41;3.22;;;1.50;;
75820;SDS011;64454;51.984;9.838;2024-02-16T03:54:07;4.28;;;1.90;;
75820;SDS011;64454;51.984;9.838;2024-02-16T03:56:33;4.00;;;1.70;;
75820;SDS011;64454;51.984;9.838;2024-02-16T03:59:00;4.95;;;1.80;;
75820;SDS011;64454;51.984;9.838;2024-02-16T04:01:26;3.58;;;1.98;;
75820;SDS011;64454;51.984;9.838;2024-02-16T04:03:52;3.58;;;1.55;;
75820;SDS011;64454;51.984;9.838;2024-02-16T04:06:19;3.45;;;2.10;;
75820;SDS011;64454;51.984;9.838;2024-02-16T04:08:45;3.53;;;1.70;;
75820;SDS011;64454;51.984;9.838;2024-02-16T04:11:11;2.85;;;1.77;;
75820;SDS011;64454;51.984;9.838;2024-02-16T04:13:39;2.58;;;1.70;;
75820;SDS011;64454;51.984;9.838;2024-02-16T04:16:05;4.10;;;1.70;;
75820;SDS011;64454;51.984;9.838;2024-02-16T04:18:32;2.50;;;1.88;;
75820;SDS011;64454;51.984;9.838;2024-02-16T04:20:58;4.20;;;1.60;;
75820;SDS011;64454;51.984;9.838;2024-02-16T04:23:24;4.38;;;2.08;;
75820;SDS011;64454;51.984;9.838;2024-02-16T04:25:50;2.17;;;1.60;;
75820;SDS011;64454;51.984;9.838;2024-02-16T04:28:17;2.78;;;1.80;;
75820;SDS011;64454;51.984;9.838;2024-02-16T04:30:43;2.80;;;1.90;;
75820;SDS011;64454;51.984;9.838;2024-02-16T04:33:09;3.70;;;2.10;;
75820;SDS011;64454;51.984;9.838;2024-02-16T04:35:36;2.40;;;1.55;;
75820;SDS011;64454;51.984;9.838;2024-02-16T04:38:03;2.55;;;1.90;;
75820;SDS011;64454;51.984;9.838;2024-02-16T04:40:30;3.35;;;1.67;;
75820;SDS011;64454;51.984;9.838;2024-02-16T04:43:02;2.88;;;1.80;;
75820;SDS011;64454;51.984;9.838;2024-02-16T04:45:28;3.33;;;1.80;;
75820;SDS011;64454;51.984;9.838;2024-02-16T04:47:55;2.20;;;1.80;;
75820;SDS011;64454;51.984;9.838;2024-02-16T04:50:21;2.92;;;2.00;;
75820;SDS011;64454;51.984;9.838;2024-02-16T04:52:47;2.90;;;1.70;;
75820;SDS011;64454;51.984;9.838;2024-02-16T04:55:13;2.40;;;1.73;;
75820;SDS011;64454;51.984;9.838;2024-02-16T04:57:40;2.72;;;2.05;;
75820;SDS011;64454;51.984;9.838;2024-02-16T05:00:06;3.33;;;1.60;;
75820;SDS011;64454;51.984;9.838;2024-02-16T05:02:34;2.05;;;1.70;;
75820;SDS011;64454;51.984;9.838;2024-02-16T05:05:00;2.70;;;1.70;;
75820;SDS011;64454;51.984;9.838;2024-02-16T05:07:27;2.10;;;1.90;;
75820;SDS011;64454;51.984;9.838;2024-02-16T05:09:53;3.30;;;2.00;;
75820;SDS011;64454;51.984;9.838;2024-02-16T05:12:23;4.15;;;1.88;;
75820;SDS011;64454;51.984;9.838;2024-02-16T05:14:50;2.90;;;1.70;;
75820;SDS011;64454;51.984;9.838;2024-02-16T05:17:16;3.63;;;1.80;;
75820;SDS011;64454;51.984;9.838;2024-02-16T05:19:43;3.28;;;1.80;;
75820;SDS011;64454;51.984;9.838;2024-02-16T05:22:10;3.20;;;1.73;;
75820;SDS011;64454;51.984;9.838;2024-02-16T05:24:36;1.90;;;1.38;;
75820;SDS011;64454;51.984;9.838;2024-02-16T05:27:02;2.50;;;1.60;;
75820;SDS011;64454;51.984;9.838;2024-02-16T05:29:29;2.55;;;1.58;;
75820;SDS011;64454;51.984;9.838;2024-02-16T05:31:56;3.15;;;1.50;;
75820;SDS011;64454;51.984;9.838;2024-02-16T05:34:22;2.90;;;1.70;;
75820;SDS011;64454;51.984;9.838;2024-02-16T05:36:49;2.05;;;1.60;;
75820;SDS011;64454;51.984;9.838;2024-02-16T05:39:15;2.20;;;1.90;;
75820;SDS011;64454;51.984;9.838;2024-02-16T05:41:52;2.92;;;1.70;;
75820;SDS011;64454;51.984;9.838;2024-02-16T05:44:18;2.97;;;1.90;;
75820;SDS011;64454;51.984;9.838;2024-02-16T05:46:45;3.60;;;1.75;;
75820;SDS011;64454;51.984;9.838;2024-02-16T05:49:12;4.00;;;2.30;;
75820;SDS011;64454;51.984;9.838;2024-02-16T05:51:38;4.47;;;2.07;;
75820;SDS011;64454;51.984;9.838;2024-02-16T05:54:06;2.50;;;1.65;;
75820;SDS011;64454;51.984;9.838;2024-02-16T05:56:33;2.97;;;1.60;;
75820;SDS011;64454;51.984;9.838;2024-02-16T05:58:59;3.03;;;1.80;;
75820;SDS011;64454;51.984;9.838;2024-02-16T06:01:25;2.07;;;1.67;;
75820;SDS011;64454;51.984;9.838;2024-02-16T06:03:52;1.92;;;1.60;;
75820;SDS011;64454;51.984;9.838;2024-02-16T06:06:19;2.58;;;1.90;;
75820;SDS011;64454;51.984;9.838;2024-02-16T06:08:45;2.53;;;1.90;;
75820;SDS011;64454;51.984;9.838;2024-02-16T06:11:12;2.53;;;1.60;;
75820;SDS011;64454;51.984;9.838;2024-02-16T06:13:38;3.58;;;1.88;;
75820;SDS011;64454;51.984;9.838;2024-02-16T06:16:05;3.22;;;1.75;;
75820;SDS011;64454;51.984;9.838;2024-02-16T06:18:33;2.13;;;1.80;;
75820;SDS011;64454;51.984;9.838;2024-02-16T06:20:59;2.70;;;2.00;;
75820;SDS011;64454;51.984;9.838;2024-02-16T06:23:26;2.92;;;1.88;;
75820;SDS011;64454;51.984;9.838;2024-02-16T06:25:52;2.70;;;1.85;;
75820;SDS011;64454;51.984;9.838;2024-02-16T06:28:18;3.70;;;1.90;;
75820;SDS011;64454;51.984;9.838;2024-02-16T06:30:44;4.13;;;2.28;;
75820;SDS011;64454;51.984;9.838;2024-02-16T06:33:11;1.92;;;1.60;;
75820;SDS011;64454;51.984;9.838;2024-02-16T06:35:37;4.00;;;2.15;;
75820;SDS011;64454;51.984;9.838;2024-02-16T06:38:03;3.45;;;2.08;;
75820;SDS011;64454;51.984;9.838;2024-02-16T06:40:30;2.87;;;1.93;;
75820;SDS011;64454;51.984;9.838;2024-02-16T06:42:57;4.28;;;2.75;;
75820;SDS011;64454;51.984;9.838;2024-02-16T06:45:23;2.10;;;1.70;;
75820;SDS011;64454;51.984;9.838;2024-02-16T06:47:50;3.20;;;1.80;;
75820;SDS011;64454;51.984;9.838;2024-02-16T06:50:16;2.88;;;1.70;;
75820;SDS011;64454;51.984;9.838;2024-02-16T06:52:42;3.38;;;1.70;;
75820;SDS011;64454;51.984;9.838;2024-02-16T06:55:08;4.00;;;1.98;;
75820;SDS011;64454;51.984;9.838;2024-02-16T06:57:35;4.90;;;2.00;;
75820;SDS011;64454;51.984;9.838;2024-02-16T07:00:01;3.13;;;2.00;;
75820;SDS011;64454;51.984;9.838;2024-02-16T07:02:29;3.90;;;2.10;;
75820;SDS011;64454;51.984;9.838;2024-02-16T07:04:56;3.15;;;1.73;;
75820;SDS011;64454;51.984;9.838;2024-02-16T07:07:22;4.40;;;1.42;;
75820;SDS011;64454;51.984;9.838;2024-02-16T07:09:48;2.28;;;1.60;;
75820;SDS011;64454;51.984;9.838;2024-02-16T07:12:14;2.50;;;1.90;;
75820;SDS011;64454;51.984;9.838;2024-02-16T07:14:40;3.08;;;2.20;;
75820;SDS011;64454;51.984;9.838;2024-02-16T07:17:07;2.90;;;2.10;;
75820;SDS011;64454;51.984;9.838;2024-02-16T07:19:34;3.17;;;2.10;;
75820;SDS011;64454;51.984;9.838;2024-02-16T07:22:01;4.25;;;1.95;;
75820;SDS011;64454;51.984;9.838;2024-02-16T07:24:27;3.80;;;2.23;;
75820;SDS011;64454;51.984;9.838;2024-02-16T07:26:53;2.60;;;1.90;;
75820;SDS011;64454;51.984;9.838;2024-02-16T07:29:20;2.58;;;1.92;;
75820;SDS011;64454;51.984;9.838;2024-02-16T07:31:46;2.17;;;1.90;;
75820;SDS011;64454;51.984;9.838;2024-02-16T07:34:13;2.80;;;2.00;;
75820;SDS011;64454;51.984;9.838;2024-02-16T07:36:39;2.20;;;1.80;;
75820;SDS011;64454;51.984;9.838;2024-02-16T07:39:05;2.70;;;1.85;;
75820;SDS011;64454;51.984;9.838;2024-02-16T07:41:31;2.75;;;1.80;;
75820;SDS011;64454;51.984;9.838;2024-02-16T07:43:57;5.07;;;2.20;;
75820;SDS011;64454;51.984;9.838;2024-02-16T07:46:23;4.80;;;2.10;;
75820;SDS011;64454;51.984;9.838;2024-02-16T07:48:50;3.40;;;1.80;;
75820;SDS011;64454;51.984;9.838;2024-02-16T07:51:16;3.67;;;2.20;;
75820;SDS011;64454;51.984;9.838;2024-02-16T07:53:42;3.30;;;2.40;;
75820;SDS011;64454;51.984;9.838;2024-02-16T07:56:11;2.78;;;1.90;;
75820;SDS011;64454;51.984;9.838;2024-02-16T07:58:37;3.95;;;1.90;;
75820;SDS011;64454;51.984;9.838;2024-02-16T08:01:03;3.60;;;2.22;;
75820;SDS011;64454;51.984;9.838;2024-02-16T08:03:29;2.30;;;1.90;;
75820;SDS011;64454;51.984;9.838;2024-02-16T08:05:56;3.42;;;2.20;;
75820;SDS011;64454;51.984;9.838;2024-02-16T08:08:22;2.75;;;1.60;;
75820;SDS011;64454;51.984;9.838;2024-02-16T08:10:48;2.90;;;1.85;;
75820;SDS011;64454;51.984;9.838;2024-02-16T08:13:15;3.08;;;1.95;;
75820;SDS011;64454;51.984;9.838;2024-02-16T08:15:43;2.92;;;2.00;;
75820;SDS011;64454;51.984;9.838;2024-02-16T08:18:09;2.20;;;1.63;;
75820;SDS011;64454;51.984;9.838;2024-02-16T08:20:36;2.92;;;2.38;;
75820;SDS011;64454;51.984;9.838;2024-02-16T08:23:03;2.17;;;1.85;;
75820;SDS011;64454;51.984;9.838;2024-02-16T08:25:29;2.70;;;2.00;;
75820;SDS011;64454;51.984;9.838;2024-02-16T08:27:58;4.70;;;2.30;;
75820;SDS011;64454;51.984;9.838;2024-02-16T08:30:24;3.05;;;1.80;;
75820;SDS011;64454;51.984;9.838;2024-02-16T08:32:50;3.20;;;1.80;;
75820;SDS011;64454;51.984;9.838;2024-02-16T08:35:17;2.88;;;2.10;;
75820;SDS011;64454;51.984;9.838;2024-02-16T08:37:43;2.90;;;1.92;;
75820;SDS011;64454;51.984;9.838;2024-02-16T08:40:12;3.00;;;1.70;;
75820;SDS011;64454;51.984;9.838;2024-02-16T08:42:39;3.38;;;1.70;;
75820;SDS011;64454;51.984;9.838;2024-02-16T08:45:06;3.80;;;1.92;;
75820;SDS011;64454;51.984;9.838;2024-02-16T08:47:33;3.13;;;2.00;;
75820;SDS011;64454;51.984;9.838;2024-02-16T08:49:59;3.20;;;1.70;;
75820;SDS011;64454;51.984;9.838;2024-02-16T08:52:26;2.90;;;2.00;;
75820;SDS011;64454;51.984;9.838;2024-02-16T08:54:52;4.18;;;2.00;;
75820;SDS011;64454;51.984;9.838;2024-02-16T08:57:18;4.85;;;2.50;;
75820;SDS011;64454;51.984;9.838;2024-02-16T08:59:45;2.97;;;2.22;;
75820;SDS011;64454;51.984;9.838;2024-02-16T09:02:12;6.20;;;1.73;;
75820;SDS011;64454;51.984;9.838;2024-02-16T09:04:38;5.30;;;2.85;;
75820;SDS011;64454;51.984;9.838;2024-02-16T09:07:04;4.30;;;2.20;;
75820;SDS011;64454;51.984;9.838;2024-02-16T09:09:30;2.53;;;1.90;;
75820;SDS011;64454;51.984;9.838;2024-02-16T09:11:56;3.60;;;1.90;;
75820;SDS011;64454;51.984;9.838;2024-02-16T09:14:23;2.85;;;1.70;;
75820;SDS011;64454;51.984;9.838;2024-02-16T09:16:49;2.55;;;1.48;;
75820;SDS011;64454;51.984;9.838;2024-02-16T09:19:16;2.83;;;2.00;;
75820;SDS011;64454;51.984;9.838;2024-02-16T09:21:43;4.10;;;1.90;;
75820;SDS011;64454;51.984;9.838;2024-02-16T09:24:09;2.28;;;1.80;;
75820;SDS011;64454;51.984;9.838;2024-02-16T09:26:39;3.78;;;2.10;;
75820;SDS011;64454;51.984;9.838;2024-02-16T09:29:05;3.00;;;2.10;;
75820;SDS011;64454;51.984;9.838;2024-02-16T09:31:32;3.17;;;1.80;;
75820;SDS011;64454;51.984;9.838;2024-02-16T09:33:58;2.67;;;2.03;;
75820;SDS011;64454;51.984;9.838;2024-02-16T09:36:24;3.55;;;1.90;;
75820;SDS011;64454;51.984;9.838;2024-02-16T09:38:50;2.70;;;1.70;;
75820;SDS011;64454;51.984;9.838;2024-02-16T09:41:16;3.05;;;1.73;;
75820;SDS011;64454;51.984;9.838;2024-02-16T09:43:43;2.90;;;2.00;;
75820;SDS011;64454;51.984;9.838;2024-02-16T09:46:09;2.30;;;1.83;;
75820;SDS011;64454;51.984;9.838;2024-02-16T09:48:36;2.78;;;1.90;;
75820;SDS011;64454;51.984;9.838;2024-02-16T09:51:05;3.83;;;2.08;;
75820;SDS011;64454;51.984;9.838;2024-02-16T09:53:31;2.53;;;2.08;;
75820;SDS011;64454;51.984;9.838;2024-02-16T09:55:57;3.43;;;2.20;;
75820;SDS011;64454;51.984;9.838;2024-02-16T09:58:23;3.00;;;1.80;;
75820;SDS011;64454;51.984;9.838;2024-02-16T10:00:50;3.83;;;2.10;;
75820;SDS011;64454;51.984;9.838;2024-02-16T10:03:21;3.80;;;1.80;;
75820;SDS011;64454;51.984;9.838;2024-02-16T10:05:50;3.55;;;1.70;;
75820;SDS011;64454;51.984;9.838;2024-02-16T10:08:17;4.05;;;2.30;;
75820;SDS011;64454;51.984;9.838;2024-02-16T10:10:44;2.67;;;1.70;;
75820;SDS011;64454;51.984;9.838;2024-02-16T10:13:10;3.70;;;2.50;;
75820;SDS011;64454;51.984;9.838;2024-02-16T10:15:36;2.78;;;2.17;;
75820;SDS011;64454;51.984;9.838;2024-02-16T10:18:04;3.17;;;1.80;;
75820;SDS011;64454;51.984;9.838;2024-02-16T10:20:31;4.60;;;1.60;;
75820;SDS011;64454;51.984;9.838;2024-02-16T10:23:06;3.65;;;1.90;;
75820;SDS011;64454;51.984;9.838;2024-02-16T10:25:34;2.78;;;2.00;;
75820;SDS011;64454;51.984;9.838;2024-02-16T10:28:03;3.60;;;2.00;;
75820;SDS011;64454;51.984;9.838;2024-02-16T10:30:34;2.45;;;1.80;;
75820;SDS011;64454;51.984;9.838;2024-02-16T10:33:02;3.33;;;2.00;;
75820;SDS011;64454;51.984;9.838;2024-02-16T10:35:30;3.40;;;1.80;;
75820;SDS011;64454;51.984;9.838;2024-02-16T10:37:59;3.80;;;1.90;;
75820;SDS011;64454;51.984;9.838;2024-02-16T10:40:30;2.83;;;1.90;;
75820;SDS011;64454;51.984;9.838;2024-02-16T10:43:00;5.10;;;2.42;;
75820;SDS011;64454;51.984;9.838;2024-02-16T10:45:31;2.70;;;1.73;;
75820;SDS011;64454;51.984;9.838;2024-02-16T10:48:00;2.97;;;1.95;;
75820;SDS011;64454;51.984;9.838;2024-02-16T10:50:27;3.50;;;2.97;;
75820;SDS011;64454;51.984;9.838;2024-02-16T10:52:53;5.55;;;2.30;;
75820;SDS011;64454;51.984;9.838;2024-02-16T10:55:22;3.45;;;2.10;;
75820;SDS011;64454;51.984;9.838;2024-02-16T10:57:50;3.40;;;1.80;;
75820;SDS011;64454;51.984;9.838;2024-02-16T11:00:19;3.38;;;1.70;;
75820;SDS011;64454;51.984;9.838;2024-02-16T11:02:52;5.05;;;1.85;;
75820;SDS011;64454;51.984;9.838;2024-02-16T11:05:31;3.20;;;2.10;;
75820;SDS011;64454;51.984;9.838;2024-02-16T11:08:02;3.90;;;1.80;;
75820;SDS011;64454;51.984;9.838;2024-02-16T11:10:30;2.83;;;1.90;;
75820;SDS011;64454;51.984;9.838;2024-02-16T11:13:00;3.85;;;2.15;;
75820;SDS011;64454;51.984;9.838;2024-02-16T11:15:30;4.10;;;2.30;;
75820;SDS011;64454;51.984;9.838;2024-02-16T11:17:57;3.42;;;2.00;;
75820;SDS011;64454;51.984;9.838;2024-02-16T11:20:24;2.90;;;1.80;;
75820;SDS011;64454;51.984;9.838;2024-02-16T11:22:51;4.67;;;2.00;;
75820;SDS011;64454;51.984;9.838;2024-02-16T11:25:17;3.08;;;2.00;;
75820;SDS011;64454;51.984;9.838;2024-02-16T11:27:45;3.20;;;2.03;;
75820;SDS011;64454;51.984;9.838;2024-02-16T11:30:13;2.90;;;1.70;;
75820;SDS011;64454;51.984;9.838;2024-02-16T11:32:41;3.85;;;1.92;;
75820;SDS011;64454;51.984;9.838;2024-02-16T11:35:08;2.70;;;2.00;;
75820;SDS011;64454;51.984;9.838;2024-02-16T11:37:36;5.88;;;2.05;;
75820;SDS011;64454;51.984;9.838;2024-02-16T11:40:03;2.20;;;1.70;;
75820;SDS011;64454;51.984;9.838;2024-02-16T11:42:33;5.38;;;2.08;;
75820;SDS011;64454;51.984;9.838;2024-02-16T11:45:00;2.30;;;1.98;;
75820;SDS011;64454;51.984;9.838;2024-02-16T11:47:27;3.05;;;1.90;;
75820;SDS011;64454;51.984;9.838;2024-02-16T11:50:00;2.40;;;1.70;;
75820;SDS011;64454;51.984;9.838;2024-02-16T11:52:28;3.15;;;1.80;;
75820;SDS011;64454;51.984;9.838;2024-02-16T11:54:54;3.63;;;1.80;;
75820;SDS011;64454;51.984;9.838;2024-02-16T11:57:20;3.57;;;1.90;;
75820;SDS011;64454;51.984;9.838;2024-02-16T11:59:47;3.33;;;1.90;;
75820;SDS011;64454;51.984;9.838;2024-02-16T12:02:16;4.32;;;2.03;;
75820;SDS011;64454;51.984;9.838;2024-02-16T12:04:44;4.30;;;1.80;;
75820;SDS011;64454;51.984;9.838;2024-02-16T12:07:12;4.70;;;2.00;;
75820;SDS011;64454;51.984;9.838;2024-02-16T12:09:39;3.20;;;2.00;;
75820;SDS011;64454;51.984;9.838;2024-02-16T12:12:05;3.60;;;2.03;;
75820;SDS011;64454;51.984;9.838;2024-02-16T12:14:32;4.13;;;2.10;;
75820;SDS011;64454;51.984;9.838;2024-02-16T12:17:00;2.53;;;1.70;;
75820;SDS011;64454;51.984;9.838;2024-02-16T12:19:26;4.00;;;2.10;;
75820;SDS011;64454;51.984;9.838;2024-02-16T12:21:53;4.80;;;2.15;;
75820;SDS011;64454;51.984;9.838;2024-02-16T12:24:22;2.70;;;1.90;;
75820;SDS011;64454;51.984;9.838;2024-02-16T12:26:49;3.40;;;1.90;;
75820;SDS011;64454;51.984;9.838;2024-02-16T12:29:16;3.38;;;1.80;;
75820;SDS011;64454;51.984;9.838;2024-02-16T12:31:43;3.42;;;1.88;;
75820;SDS011;64454;51.984;9.838;2024-02-16T12:34:13;3.65;;;2.00;;
75820;SDS011;64454;51.984;9.838;2024-02-16T12:36:39;3.10;;;1.63;;
75820;SDS011;64454;51.984;9.838;2024-02-16T12:39:07;3.58;;;2.22;;
75820;SDS011;64454;51.984;9.838;2024-02-16T12:41:37;3.35;;;2.10;;
75820;SDS011;64454;51.984;9.838;2024-02-16T12:44:03;3.78;;;2.00;;
75820;SDS011;64454;51.984;9.838;2024-02-16T12:46:30;3.00;;;2.10;;
75820;SDS011;64454;51.984;9.838;2024-02-16T12:48:57;3.60;;;1.97;;
75820;SDS011;64454;51.984;9.838;2024-02-16T12:51:23;5.38;;;2.42;;
75820;SDS011;64454;51.984;9.838;2024-02-16T12:53:49;3.75;;;2.50;;
75820;SDS011;64454;51.984;9.838;2024-02-16T12:56:16;4.97;;;2.38;;
75820;SDS011;64454;51.984;9.838;2024-02-16T12:58:42;3.70;;;2.20;;
75820;SDS011;64454;51.984;9.838;2024-02-16T13:01:08;3.93;;;2.27;;
75820;SDS011;64454;51.984;9.838;2024-02-16T13:03:36;6.85;;;2.50;;
75820;SDS011;64454;51.984;9.838;2024-02-16T13:06:04;4.35;;;2.20;;
75820;SDS011;64454;51.984;9.838;2024-02-16T13:08:31;4.28;;;2.40;;
75820;SDS011;64454;51.984;9.838;2024-02-16T13:10:57;5.60;;;1.92;;
75820;SDS011;64454;51.984;9.838;2024-02-16T13:13:24;3.70;;;2.17;;
75820;SDS011;64454;51.984;9.838;2024-02-16T13:15:50;3.60;;;2.22;;
75820;SDS011;64454;51.984;9.838;2024-02-16T13:18:17;4.25;;;2.20;;
75820;SDS011;64454;51.984;9.838;2024-02-16T13:20:43;3.10;;;2.00;;
75820;SDS011;64454;51.984;9.838;2024-02-16T13:23:10;3.00;;;2.00;;
75820;SDS011;64454;51.984;9.838;2024-02-16T13:25:36;3.78;;;2.60;;
75820;SDS011;64454;51.984;9.838;2024-02-16T13:28:02;5.60;;;2.33;;
75820;SDS011;64454;51.984;9.838;2024-02-16T13:30:29;3.17;;;2.20;;
75820;SDS011;64454;51.984;9.838;2024-02-16T13:32:56;3.63;;;2.30;;
75820;SDS011;64454;51.984;9.838;2024-02-16T13:35:22;4.28;;;2.85;;
75820;SDS011;64454;51.984;9.838;2024-02-16T13:37:49;4.72;;;2.63;;
75820;SDS011;64454;51.984;9.838;2024-02-16T13:40:15;5.78;;;3.00;;
75820;SDS011;64454;51.984;9.838;2024-02-16T13:42:42;3.78;;;2.25;;
75820;SDS011;64454;51.984;9.838;2024-02-16T13:45:09;5.10;;;2.30;;
75820;SDS011;64454;51.984;9.838;2024-02-16T13:47:36;3.30;;;2.10;;
75820;SDS011;64454;51.984;9.838;2024-02-16T13:50:05;3.13;;;2.40;;
75820;SDS011;64454;51.984;9.838;2024-02-16T13:52:31;5.60;;;2.25;;
75820;SDS011;64454;51.984;9.838;2024-02-16T13:55:00;3.30;;;2.25;;
75820;SDS011;64454;51.984;9.838;2024-02-16T13:57:26;6.20;;;2.60;;
75820;SDS011;64454;51.984;9.838;2024-02-16T13:59:52;5.07;;;2.60;;
75820;SDS011;64454;51.984;9.838;2024-02-16T14:02:18;4.50;;;3.63;;
75820;SDS011;64454;51.984;9.838;2024-02-16T14:04:45;5.20;;;3.10;;
75820;SDS011;64454;51.984;9.838;2024-02-16T14:07:11;5.60;;;3.20;;
75820;SDS011;64454;51.984;9.838;2024-02-16T14:09:38;3.10;;;2.30;;
75820;SDS011;64454;51.984;9.838;2024-02-16T14:12:04;7.35;;;6.10;;
75820;SDS011;64454;51.984;9.838;2024-02-16T14:14:31;7.25;;;5.25;;
75820;SDS011;64454;51.984;9.838;2024-02-16T14:16:57;4.70;;;3.00;;
75820;SDS011;64454;51.984;9.838;2024-02-16T14:19:23;4.43;;;2.70;;
75820;SDS011;64454;51.984;9.838;2024-02-16T14:21:50;3.33;;;2.50;;
75820;SDS011;64454;51.984;9.838;2024-02-16T14:24:16;7.00;;;3.30;;
75820;SDS011;64454;51.984;9.838;2024-02-16T14:26:43;4.70;;;2.40;;
75820;SDS011;64454;51.984;9.838;2024-02-16T14:29:09;5.50;;;2.70;;
75820;SDS011;64454;51.984;9.838;2024-02-16T14:31:35;4.97;;;2.90;;
75820;SDS011;64454;51.984;9.838;2024-02-16T14:34:01;8.77;;;3.30;;
75820;SDS011;64454;51.984;9.838;2024-02-16T14:36:28;6.22;;;2.92;;
75820;SDS011;64454;51.984;9.838;2024-02-16T14:38:54;5.13;;;2.70;;
75820;SDS011;64454;51.984;9.838;2024-02-16T14:41:20;5.50;;;2.70;;
75820;SDS011;64454;51.984;9.838;2024-02-16T14:43:48;3.60;;;2.70;;
75820;SDS011;64454;51.984;9.838;2024-02-16T14:46:14;5.55;;;2.70;;